Time;durP1;ratioP1;P1;durP2;ratioP2;P2;SDS_P1;SDS_P2;PMS_P1;PMS_P2;Temp;Humidity;BMP_temperature;BMP_pressure;BME280_temperature;BME280_humidity;BME280_pressure;Samples;Min_cycle;Max_cycle;Signal;HPM_P1;HPM_P2
2023/09/30 00:01:29;;;;;;;66.40;62.20;;;;;;;12.60;100.00;101986.81;4971494;28;20526;-42
2023/09/30 00:03:58;;;;;;;62.30;58.83;;;;;;;12.61;100.00;101993.81;4971637;28;20439;-43
2023/09/30 00:06:26;;;;;;;67.43;63.63;;;;;;;12.61;100.00;101999.16;4971638;28;20443;-45
2023/09/30 00:08:54;;;;;;;67.13;63.40;;;;;;;12.62;100.00;102006.19;4971795;28;20439;-43
2023/09/30 00:11:21;;;;;;;69.53;65.90;;;;;;;12.61;100.00;102005.34;4951569;28;20472;-48
2023/09/30 00:13:50;;;;;;;64.10;60.40;;;;;;;12.61;100.00;102001.84;4952130;28;20539;-46
2023/09/30 00:16:18;;;;;;;67.63;64.27;;;;;;;12.59;100.00;102007.38;4952370;28;20447;-43
2023/09/30 00:18:46;;;;;;;68.80;65.33;;;;;;;12.57;100.00;102004.03;4951796;28;20435;-44
2023/09/30 00:21:15;;;;;;;69.33;65.00;;;;;;;12.58;100.00;102015.56;4950857;28;21061;-43
2023/09/30 00:23:43;;;;;;;65.63;61.50;;;;;;;12.57;100.00;102004.03;4951786;28;20499;-43
2023/09/30 00:26:11;;;;;;;71.83;67.87;;;;;;;12.58;100.00;102018.25;4953472;28;20443;-45
2023/09/30 00:28:38;;;;;;;75.13;70.67;;;;;;;12.57;100.00;102019.28;4952183;28;20440;-43
2023/09/30 00:31:09;;;;;;;77.90;74.23;;;;;;;12.52;100.00;102027.00;4951566;28;20551;-47
2023/09/30 00:33:38;;;;;;;84.37;80.17;;;;;;;12.45;100.00;102023.38;4951792;28;20444;-46
2023/09/30 00:36:08;;;;;;;81.50;78.10;;;;;;;12.40;100.00;102023.91;4951736;28;20482;-48
2023/09/30 00:38:37;;;;;;;87.03;82.63;;;;;;;12.34;100.00;102027.28;4951539;28;20448;-47
2023/09/30 00:41:05;;;;;;;91.43;87.63;;;;;;;12.28;100.00;102030.66;4950788;28;20870;-42
2023/09/30 00:43:32;;;;;;;89.77;85.10;;;;;;;12.25;100.00;102027.50;4951406;28;20467;-43
2023/09/30 00:46:06;;;;;;;83.87;79.70;;;;;;;12.21;100.00;102024.38;4951773;28;20557;-43
2023/09/30 00:48:34;;;;;;;82.50;78.73;;;;;;;12.19;100.00;102027.22;4951890;28;20514;-42
2023/09/30 00:51:03;;;;;;;86.73;82.33;;;;;;;12.16;100.00;102030.22;4950522;28;20467;-47
2023/09/30 00:53:32;;;;;;;86.93;82.80;;;;;;;12.13;100.00;102025.22;4951292;28;20534;-43
2023/09/30 00:56:02;;;;;;;86.67;82.43;;;;;;;12.10;100.00;102030.94;4950835;28;20499;-43
2023/09/30 00:58:30;;;;;;;83.43;79.53;;;;;;;12.09;100.00;102029.28;4951143;28;20440;-43
2023/09/30 01:01:00;;;;;;;84.67;80.87;;;;;;;12.10;100.00;102036.28;4951198;28;20468;-44
2023/09/30 01:03:28;;;;;;;82.33;78.83;;;;;;;12.10;100.00;102041.63;4951622;28;20467;-43
2023/09/30 01:05:55;;;;;;;85.33;81.43;;;;;;;12.09;100.00;102041.81;4951029;28;20447;-44
2023/09/30 01:08:23;;;;;;;89.10;84.20;;;;;;;12.07;100.00;102043.81;4950840;28;20478;-47
2023/09/30 01:10:51;;;;;;;84.30;80.07;;;;;;;12.03;100.00;102037.16;4965395;28;20466;-48
2023/09/30 01:13:20;;;;;;;82.20;78.60;;;;;;;12.01;100.00;102040.00;4971474;28;20513;-45
2023/09/30 01:15:48;;;;;;;84.43;80.80;;;;;;;12.01;100.00;102028.47;4990040;28;20469;-42
2023/09/30 01:18:16;;;;;;;88.00;84.00;;;;;;;12.01;100.00;102033.81;4989043;28;20442;-44
2023/09/30 01:20:44;;;;;;;89.07;84.27;;;;;;;11.97;100.00;102036.03;4982174;28;20466;-44
2023/09/30 01:23:13;;;;;;;89.33;85.00;;;;;;;11.94;100.00;102038.22;4990142;28;20434;-44
2023/09/30 01:25:42;;;;;;;85.87;81.90;;;;;;;11.94;100.00;102027.53;4991506;28;21148;-46
2023/09/30 01:28:10;;;;;;;86.27;82.83;;;;;;;11.95;100.00;102024.66;4975777;28;20474;-44
2023/09/30 01:30:38;;;;;;;91.67;87.97;;;;;;;11.95;100.00;102021.16;4971835;28;21017;-44
2023/09/30 01:33:07;;;;;;;85.83;81.43;;;;;;;11.96;100.00;102031.69;4979029;28;20496;-46
2023/09/30 01:35:35;;;;;;;87.97;84.10;;;;;;;11.96;100.00;102015.66;4988840;28;20925;-44
2023/09/30 01:38:03;;;;;;;87.90;83.57;;;;;;;11.97;100.00;102028.00;4989102;28;20438;-49
2023/09/30 01:40:32;;;;;;;86.53;82.40;;;;;;;11.98;100.00;102034.16;4987856;28;20697;-44
2023/09/30 01:43:00;;;;;;;87.70;83.63;;;;;;;11.96;100.00;102036.19;4985451;28;20893;-47
2023/09/30 01:45:28;;;;;;;88.20;84.67;;;;;;;11.95;100.00;102029.16;4987604;28;20883;-50
2023/09/30 01:47:56;;;;;;;90.13;84.73;;;;;;;11.92;100.00;102034.84;4989290;28;20516;-46
2023/09/30 01:50:24;;;;;;;87.40;83.43;;;;;;;11.91;100.00;102035.88;4983330;28;20469;-49
2023/09/30 01:52:51;;;;;;;89.90;85.20;;;;;;;11.93;100.00;102028.53;4982509;28;20488;-47
2023/09/30 01:55:19;;;;;;;89.37;85.13;;;;;;;11.92;100.00;102037.53;4988510;28;20450;-44
2023/09/30 01:57:48;;;;;;;88.73;84.83;;;;;;;11.90;100.00;102037.72;4989247;28;20453;-43
2023/09/30 02:00:17;;;;;;;90.80;86.30;;;;;;;11.89;100.00;102035.22;4986328;28;20482;-43
2023/09/30 02:02:45;;;;;;;89.40;85.20;;;;;;;11.88;100.00;102041.59;4988192;28;20473;-42
2023/09/30 02:05:13;;;;;;;95.50;90.73;;;;;;;11.85;100.00;102040.09;4984920;28;20493;-46
2023/09/30 02:07:41;;;;;;;93.83;90.20;;;;;;;11.84;100.00;102040.25;4987272;28;22145;-43
2023/09/30 02:10:09;;;;;;;93.77;89.33;;;;;;;11.80;100.00;102045.09;4990093;28;20465;-46
2023/09/30 02:12:37;;;;;;;97.87;93.70;;;;;;;11.77;100.00;102040.09;4983553;28;20857;-45
2023/09/30 02:15:08;;;;;;;97.17;92.80;;;;;;;11.73;100.00;102049.50;4983412;28;20477;-45
2023/09/30 02:17:35;;;;;;;99.03;94.33;;;;;;;11.71;100.00;102043.47;4987335;28;20456;-45
2023/09/30 02:20:07;;;;;;;103.47;99.10;;;;;;;11.67;100.00;102047.47;4987228;28;20829;-42
2023/09/30 02:22:35;;;;;;;105.13;99.73;;;;;;;11.66;100.00;102048.47;4992439;23;20522;-41
2023/09/30 02:25:07;;;;;;;101.00;96.60;;;;;;;11.64;100.00;102045.16;4972463;28;20435;-41
2023/09/30 02:27:35;;;;;;;99.90;95.00;;;;;;;11.63;100.00;102048.81;4971068;28;20851;-42
2023/09/30 02:30:02;;;;;;;97.53;93.00;;;;;;;11.64;100.00;102037.97;4970627;28;20467;-42
2023/09/30 02:32:33;;;;;;;97.07;92.67;;;;;;;11.64;100.00;102040.63;4971394;28;20509;-43
2023/09/30 02:35:00;;;;;;;98.73;93.73;;;;;;;11.67;100.00;102036.78;4971176;28;20534;-41
2023/09/30 02:37:29;;;;;;;94.43;89.13;;;;;;;11.70;100.00;102036.47;4970883;28;20502;-42
2023/09/30 02:39:56;;;;;;;90.43;86.33;;;;;;;11.74;100.00;102042.31;4970554;28;20549;-42
2023/09/30 02:42:25;;;;;;;93.57;88.80;;;;;;;11.75;100.00;102041.28;4962398;28;20824;-43
2023/09/30 02:44:53;;;;;;;87.37;83.50;;;;;;;11.77;100.00;102052.66;4966238;28;20446;-43
2023/09/30 02:47:20;;;;;;;91.60;87.50;;;;;;;11.78;100.00;102051.63;4968358;28;20492;-42
2023/09/30 02:49:49;;;;;;;94.80;90.60;;;;;;;11.78;100.00;102055.16;4959342;28;20482;-42
2023/09/30 02:52:17;;;;;;;92.03;88.10;;;;;;;11.79;100.00;102061.31;4967636;28;20458;-42
2023/09/30 02:54:45;;;;;;;92.83;88.13;;;;;;;11.77;100.00;102058.00;4970848;28;20526;-46
2023/09/30 02:57:13;;;;;;;101.93;96.20;;;;;;;11.76;100.00;102059.00;4963162;28;20462;-43
2023/09/30 02:59:40;;;;;;;95.33;91.40;;;;;;;11.77;100.00;102058.81;4962718;28;20578;-42
2023/09/30 03:02:08;;;;;;;100.13;95.53;;;;;;;11.76;100.00;102056.31;4963288;28;20458;-41
2023/09/30 03:04:36;;;;;;;106.37;100.80;;;;;;;11.73;100.00;102062.00;4962797;28;20780;-41
2023/09/30 03:07:05;;;;;;;103.27;99.27;;;;;;;11.71;100.00;102059.50;4962941;28;20437;-41
2023/09/30 03:09:32;;;;;;;98.33;93.87;;;;;;;11.67;100.00;102060.84;4962222;28;20557;-41
2023/09/30 03:12:00;;;;;;;101.17;96.17;;;;;;;11.68;100.00;102064.34;4964597;28;20982;-41
2023/09/30 03:14:30;;;;;;;97.80;93.17;;;;;;;11.71;100.00;102053.34;4968990;28;20945;-41
2023/09/30 03:16:58;;;;;;;102.00;97.90;;;;;;;11.71;100.00;102053.34;4971723;28;20442;-41
2023/09/30 03:19:26;;;;;;;100.10;96.30;;;;;;;11.72;100.00;102055.00;4973871;28;20830;-41
2023/09/30 03:21:54;;;;;;;108.73;104.00;;;;;;;11.73;100.00;102049.50;4974155;28;20954;-41
2023/09/30 03:24:23;;;;;;;113.73;108.90;;;;;;;11.74;100.00;102050.31;4966634;28;20887;-43
2023/09/30 03:26:51;;;;;;;106.17;101.53;;;;;;;11.77;100.00;102055.31;4974718;28;20509;-44
2023/09/30 03:29:19;;;;;;;101.37;97.07;;;;;;;11.80;100.00;102069.16;4973882;28;20847;-41
2023/09/30 03:31:47;;;;;;;101.30;96.97;;;;;;;11.85;100.00;102061.47;4974965;28;20459;-41
2023/09/30 03:34:16;;;;;;;106.93;102.57;;;;;;;11.88;100.00;102068.31;4974216;28;21000;-42
2023/09/30 03:36:44;;;;;;;113.07;108.43;;;;;;;11.90;100.00;102069.81;4974319;28;20486;-43
2023/09/30 03:39:14;;;;;;;113.40;107.90;;;;;;;11.91;100.00;102070.63;4974003;28;20858;-42
2023/09/30 03:41:44;;;;;;;114.27;109.17;;;;;;;11.92;100.00;102070.44;4974156;28;20466;-42
2023/09/30 03:44:12;;;;;;;103.07;98.93;;;;;;;11.89;100.00;102077.97;4974166;28;20466;-42
2023/09/30 03:46:40;;;;;;;113.03;106.83;;;;;;;11.87;100.00;102075.50;4974367;28;20541;-42
2023/09/30 03:49:08;;;;;;;104.33;99.83;;;;;;;11.88;100.00;102079.84;4973135;28;20488;-42
2023/09/30 03:51:37;;;;;;;104.83;100.37;;;;;;;11.88;100.00;102087.88;4973554;28;20462;-43
2023/09/30 03:54:06;;;;;;;105.00;101.00;;;;;;;11.86;100.00;102081.00;4974252;28;20905;-41
2023/09/30 03:56:34;;;;;;;108.67;104.20;;;;;;;11.89;100.00;102089.50;4974007;28;20443;-42
2023/09/30 03:59:03;;;;;;;106.97;102.20;;;;;;;11.88;100.00;102085.19;4973805;28;20435;-43
2023/09/30 04:01:31;;;;;;;105.83;101.33;;;;;;;11.89;100.00;102078.81;4973960;28;20498;-41
2023/09/30 04:04:00;;;;;;;107.57;102.53;;;;;;;11.92;100.00;102072.28;4973936;28;20442;-41
2023/09/30 04:06:29;;;;;;;97.60;93.80;;;;;;;11.93;100.00;102076.63;4964524;28;20439;-41
2023/09/30 04:08:59;;;;;;;105.63;100.73;;;;;;;11.94;100.00;102076.47;4967584;28;20441;-43
2023/09/30 04:11:26;;;;;;;102.10;97.60;;;;;;;11.95;100.00;102075.44;4973054;28;20458;-42
2023/09/30 04:13:54;;;;;;;104.00;99.30;;;;;;;11.94;100.00;102078.31;4973570;28;20479;-42
2023/09/30 04:16:28;;;;;;;103.83;99.27;;;;;;;11.99;100.00;102084.81;4974380;28;20460;-41
2023/09/30 04:18:56;;;;;;;105.87;101.10;;;;;;;11.96;100.00;102081.63;4973807;28;20462;-44
2023/09/30 04:21:24;;;;;;;110.70;106.27;;;;;;;11.93;100.00;102090.00;4972033;28;20909;-41
2023/09/30 04:23:52;;;;;;;110.47;106.10;;;;;;;11.89;100.00;102097.53;4966513;28;20435;-41
2023/09/30 04:26:19;;;;;;;113.20;107.83;;;;;;;11.85;100.00;102095.38;4965667;28;20430;-41
2023/09/30 04:28:47;;;;;;;118.93;114.03;;;;;;;11.82;100.00;102098.41;4973211;28;20442;-41
2023/09/30 04:31:15;;;;;;;119.50;115.13;;;;;;;11.78;100.00;102094.41;4972750;28;20498;-43
2023/09/30 04:33:45;;;;;;;115.20;110.50;;;;;;;11.74;100.00;102101.91;4973395;28;20479;-43
2023/09/30 04:36:13;;;;;;;119.23;113.93;;;;;;;11.74;100.00;102101.91;4973467;28;20439;-42
2023/09/30 04:38:41;;;;;;;111.47;106.80;;;;;;;11.72;100.00;102095.06;4973116;28;21086;-41
2023/09/30 04:41:09;;;;;;;114.70;109.83;;;;;;;11.74;100.00;102096.56;4972380;28;20671;-41
2023/09/30 04:43:37;;;;;;;110.20;105.80;;;;;;;11.76;100.00;102093.75;4955417;28;20446;-43
2023/09/30 04:46:07;;;;;;;113.40;108.17;;;;;;;11.77;100.00;102104.25;4960464;28;20431;-43
2023/09/30 04:48:34;;;;;;;113.43;108.90;;;;;;;11.77;100.00;102104.25;4965281;28;20436;-42
2023/09/30 04:51:08;;;;;;;115.77;110.53;;;;;;;11.79;100.00;102104.09;4972546;28;20542;-42
2023/09/30 04:53:36;;;;;;;109.90;105.40;;;;;;;11.79;100.00;102106.75;4972842;28;20461;-42
2023/09/30 04:56:04;;;;;;;115.83;110.63;;;;;;;11.78;100.00;102107.75;4965181;28;20447;-43
2023/09/30 04:58:32;;;;;;;121.93;117.00;;;;;;;11.77;100.00;102108.78;4964769;28;20445;-45
2023/09/30 05:01:00;;;;;;;118.03;113.37;;;;;;;11.75;100.00;102114.28;4973085;28;20529;-42
2023/09/30 05:03:27;;;;;;;119.90;114.80;;;;;;;11.74;100.00;102112.59;4965468;28;20469;-42
2023/09/30 05:05:56;;;;;;;116.47;111.47;;;;;;;11.73;100.00;102116.31;4973393;28;20443;-42
2023/09/30 05:08:25;;;;;;;121.20;115.30;;;;;;;11.72;100.00;102113.78;4956999;28;20534;-41
2023/09/30 05:10:55;;;;;;;115.73;110.90;;;;;;;11.68;100.00;102107.09;4972393;28;20471;-43
2023/09/30 05:13:23;;;;;;;117.50;112.00;;;;;;;11.66;100.00;102118.78;4964590;28;20502;-43
2023/09/30 05:15:52;;;;;;;118.33;113.20;;;;;;;11.66;100.00;102123.28;4973707;28;20482;-42
2023/09/30 05:18:19;;;;;;;115.57;110.67;;;;;;;11.65;100.00;102126.94;4973411;28;20787;-41
2023/09/30 05:20:49;;;;;;;114.00;109.60;;;;;;;11.65;100.00;102122.44;4971985;28;20895;-41
2023/09/30 05:23:18;;;;;;;116.07;111.40;;;;;;;11.68;100.00;102130.13;4972209;28;20807;-41
2023/09/30 05:25:47;;;;;;;113.00;108.57;;;;;;;11.71;100.00;102133.50;4961263;28;20432;-43
2023/09/30 05:28:15;;;;;;;112.60;107.80;;;;;;;11.75;100.00;102126.81;4972301;28;20434;-41
2023/09/30 05:30:43;;;;;;;113.83;108.53;;;;;;;11.81;100.00;102129.63;4972076;28;20467;-43
2023/09/30 05:33:14;;;;;;;111.93;107.20;;;;;;;11.86;100.00;102132.63;4972379;28;20467;-41
2023/09/30 05:35:42;;;;;;;109.43;105.33;;;;;;;11.89;100.00;102136.78;4969708;28;20478;-43
2023/09/30 05:38:10;;;;;;;115.13;110.03;;;;;;;12.01;100.00;102138.94;4967275;28;21122;-42
2023/09/30 05:40:38;;;;;;;108.30;103.80;;;;;;;11.98;100.00;102149.13;4969883;28;20459;-42
2023/09/30 05:43:07;;;;;;;110.57;105.87;;;;;;;12.03;100.00;102147.63;4958249;28;20830;-43
2023/09/30 05:45:35;;;;;;;108.80;103.97;;;;;;;12.10;100.00;102155.78;4970729;28;20441;-41
2023/09/30 05:48:06;;;;;;;112.13;106.73;;;;;;;12.14;100.00;102149.09;4966331;28;20478;-41
2023/09/30 05:50:36;;;;;;;110.93;106.50;;;;;;;12.19;100.00;102152.91;4963432;28;20464;-43
2023/09/30 05:53:05;;;;;;;105.60;100.80;;;;;;;12.33;100.00;102158.53;4967487;28;20452;-41
2023/09/30 05:55:33;;;;;;;105.63;101.30;;;;;;;12.41;100.00;102156.66;4970633;28;20502;-41
2023/09/30 05:58:01;;;;;;;100.70;96.13;;;;;;;12.47;100.00;102158.66;4972474;28;20435;-43
2023/09/30 06:00:34;;;;;;;99.90;94.90;;;;;;;12.54;100.00;102158.78;4971422;28;20986;-43
2023/09/30 06:03:02;;;;;;;97.27;92.70;;;;;;;12.63;100.00;102169.25;4964464;28;21033;-41
2023/09/30 06:05:30;;;;;;;92.40;88.40;;;;;;;12.72;100.00;102173.56;4964073;28;20491;-42
2023/09/30 06:08:02;;;;;;;95.63;91.10;;;;;;;12.74;100.00;102174.22;4971916;28;20814;-42
2023/09/30 06:10:30;;;;;;;91.43;87.30;;;;;;;12.84;100.00;102173.19;4963152;28;20467;-44
2023/09/30 06:12:59;;;;;;;89.97;85.93;;;;;;;12.89;100.00;102174.31;4971621;28;20454;-41
2023/09/30 06:15:28;;;;;;;95.20;91.43;;;;;;;12.94;100.00;102176.44;4971753;28;20498;-42
2023/09/30 06:17:59;;;;;;;86.63;82.13;;;;;;;13.03;100.00;102178.06;4971992;28;20462;-43
2023/09/30 06:20:30;;;;;;;85.70;81.50;;;;;;;13.10;100.00;102181.72;4971186;28;20466;-43
2023/09/30 06:22:58;;;;;;;91.97;87.67;;;;;;;13.18;100.00;102179.81;4971410;28;20455;-43
2023/09/30 06:25:27;;;;;;;83.93;80.03;;;;;;;13.26;100.00;102182.44;4971318;28;20867;-42
2023/09/30 06:27:55;;;;;;;81.53;77.93;;;;;;;13.42;100.00;102188.69;4963263;28;20938;-44
2023/09/30 06:30:29;;;;;;;83.63;79.93;;;;;;;13.51;100.00;102191.13;4963530;28;20474;-41
2023/09/30 06:33:00;;;;;;;80.23;76.40;;;;;;;13.61;100.00;102177.47;4971526;28;20481;-42
2023/09/30 06:35:30;;;;;;;81.00;77.00;;;;;;;13.62;100.00;102177.28;4970793;28;20474;-42
2023/09/30 06:37:58;;;;;;;77.90;74.30;;;;;;;13.68;100.00;102184.59;4963997;28;20517;-41
2023/09/30 06:40:25;;;;;;;74.47;71.00;;;;;;;13.73;100.00;102189.41;4970785;28;20458;-42
2023/09/30 06:42:53;;;;;;;75.67;71.70;;;;;;;13.97;100.00;102186.50;4971117;28;20497;-41
2023/09/30 06:45:21;;;;;;;68.23;64.60;;;;;;;14.22;100.00;102187.88;4963329;28;20435;-42
2023/09/30 06:47:50;;;;;;;65.53;62.33;;;;;;;14.52;100.00;102183.34;4971408;28;20525;-41
2023/09/30 06:50:21;;;;;;;60.23;56.60;;;;;;;14.81;100.00;102190.53;4970397;28;20484;-41
2023/09/30 06:52:49;;;;;;;59.63;55.90;;;;;;;15.00;100.00;102181.00;4970319;28;20465;-42
2023/09/30 06:55:18;;;;;;;64.93;61.70;;;;;;;15.18;100.00;102176.03;4971012;28;20481;-42
2023/09/30 06:57:46;;;;;;;72.93;69.27;;;;;;;15.27;100.00;102183.78;4970865;28;20814;-42
2023/09/30 07:00:16;;;;;;;65.57;62.63;;;;;;;15.43;100.00;102188.06;4970524;28;20521;-42
2023/09/30 07:02:44;;;;;;;63.43;60.27;;;;;;;15.50;100.00;102189.81;4953259;28;20463;-44
2023/09/30 07:05:13;;;;;;;66.73;63.20;;;;;;;15.54;100.00;102194.78;4965755;28;20435;-43
2023/09/30 07:07:43;;;;;;;63.20;60.23;;;;;;;15.72;100.00;102187.91;4954994;28;20823;-41
2023/09/30 07:10:12;;;;;;;61.10;58.20;;;;;;;15.87;100.00;102196.72;4956697;28;20486;-42
2023/09/30 07:12:39;;;;;;;58.57;55.47;;;;;;;16.16;100.00;102198.34;4959432;28;20461;-41
2023/09/30 07:15:09;;;;;;;53.73;50.93;;;;;;;16.50;100.00;102202.91;4956716;28;20509;-42
2023/09/30 07:17:37;;;;;;;52.03;49.40;;;;;;;16.82;100.00;102207.59;4955250;28;20919;-41
2023/09/30 07:20:06;;;;;;;59.63;56.60;;;;;;;16.83;100.00;102194.97;4965720;28;20463;-44
2023/09/30 07:22:35;;;;;;;73.10;69.40;;;;;;;16.83;100.00;102203.91;4951235;28;20471;-42
2023/09/30 07:25:23;;;;;;;60.17;56.97;;;;;;;17.02;100.00;102205.81;4958616;28;20442;-42
2023/09/30 07:27:52;;;;;;;60.53;57.83;;;;;;;17.17;100.00;102214.53;4956522;28;20804;-42
2023/09/30 07:30:20;;;;;;;62.23;59.43;;;;;;;17.43;100.00;102205.69;4959171;28;20467;-41
2023/09/30 07:32:47;;;;;;;59.00;55.67;;;;;;;17.60;100.00;102209.66;4951677;28;20460;-42
2023/09/30 07:35:16;;;;;;;58.03;55.23;;;;;;;17.81;100.00;102214.00;4951473;28;20872;-43
2023/09/30 07:37:44;;;;;;;66.83;63.20;;;;;;;17.94;100.00;102210.47;4951344;28;20439;-45
2023/09/30 07:40:12;;;;;;;62.87;59.70;;;;;;;18.03;100.00;102207.34;4958838;28;21037;-42
2023/09/30 07:42:42;;;;;;;59.53;56.80;;;;;;;18.09;100.00;102206.53;4961406;28;21130;-40
2023/09/30 07:45:11;;;;;;;65.10;61.70;;;;;;;18.10;100.00;102210.03;4969018;28;20442;-42
2023/09/30 07:47:38;;;;;;;63.03;59.70;;;;;;;18.15;100.00;102211.06;4967045;28;20441;-42
2023/09/30 07:50:09;;;;;;;59.23;55.67;;;;;;;18.11;100.00;102209.00;4962665;28;20484;-41
2023/09/30 07:52:39;;;;;;;64.93;61.43;;;;;;;17.99;100.00;102206.09;4959334;28;20869;-41
2023/09/30 07:55:08;;;;;;;54.57;51.47;;;;;;;17.92;100.00;102224.16;4953104;28;20468;-41
2023/09/30 07:57:36;;;;;;;59.30;56.00;;;;;;;17.96;100.00;102221.88;4969561;28;20446;-42
2023/09/30 08:00:09;;;;;;;54.87;52.03;;;;;;;17.99;100.00;102222.31;4968559;28;20495;-41
2023/09/30 08:02:37;;;;;;;54.40;51.67;;;;;;;17.95;100.00;102229.16;4967888;28;20455;-42
2023/09/30 08:05:06;;;;;;;49.70;47.67;;;;;;;18.08;100.00;102220.22;4969483;28;20439;-42
2023/09/30 08:07:34;;;;;;;46.77;44.20;;;;;;;18.12;100.00;102216.91;4970066;28;20516;-42
2023/09/30 08:10:04;;;;;;;50.90;48.33;;;;;;;18.18;100.00;102221.44;4969453;28;20891;-41
2023/09/30 08:12:32;;;;;;;47.30;44.83;;;;;;;18.28;100.00;102221.00;4968701;28;20468;-42
2023/09/30 08:15:01;;;;;;;45.50;43.13;;;;;;;18.49;100.00;102219.94;4967732;28;20436;-43
2023/09/30 08:17:31;;;;;;;40.40;37.63;;;;;;;18.74;100.00;102229.81;4970651;28;20977;-42
2023/09/30 08:19:59;;;;;;;40.50;38.20;;;;;;;18.88;100.00;102227.03;4966082;28;20463;-42
2023/09/30 08:22:27;;;;;;;40.40;37.90;;;;;;;18.83;100.00;102232.28;4973267;28;20464;-42
2023/09/30 08:24:56;;;;;;;40.50;38.50;;;;;;;18.95;100.00;102234.09;4973155;28;20457;-42
2023/09/30 08:27:24;;;;;;;40.50;38.40;;;;;;;18.89;100.00;102237.66;4967072;28;20431;-42
2023/09/30 08:29:53;;;;;;;43.07;40.47;;;;;;;18.88;100.00;102235.16;4969900;28;20512;-42
2023/09/30 08:32:21;;;;;;;39.50;37.30;;;;;;;18.82;100.00;102241.44;4961318;28;20570;-42
2023/09/30 08:34:50;;;;;;;39.27;37.07;;;;;;;18.60;100.00;102230.94;4964587;28;20438;-42
2023/09/30 08:37:17;;;;;;;38.73;36.30;;;;;;;18.57;100.00;102235.91;4972397;28;20485;-43
2023/09/30 08:39:45;;;;;;;39.70;37.20;;;;;;;18.44;100.00;102239.44;4965534;28;20531;-42
2023/09/30 08:42:13;;;;;;;39.00;36.37;;;;;;;18.46;100.00;102244.63;4966048;28;20563;-41
2023/09/30 08:44:42;;;;;;;35.37;33.33;;;;;;;18.35;100.00;102239.88;4965413;28;20480;-43
2023/09/30 08:47:11;;;;;;;38.63;36.50;;;;;;;18.28;100.00;102249.91;4966398;28;20438;-42
2023/09/30 08:49:39;;;;;;;40.27;37.90;;;;;;;18.18;100.00;102251.16;4966785;28;20462;-41
2023/09/30 08:52:10;;;;;;;44.00;41.40;;;;;;;18.11;100.00;102244.09;4961691;28;20449;-40
2023/09/30 08:54:38;;;;;;;39.87;37.40;;;;;;;17.84;100.00;102245.97;4968192;28;20504;-41
2023/09/30 08:57:10;;;;;;;41.80;39.67;;;;;;;17.77;100.00;102242.44;4996938;23;20553;-42
2023/09/30 08:59:41;;;;;;;39.37;37.27;;;;;;;17.53;100.00;102249.25;4997860;28;20474;-45
2023/09/30 09:02:10;;;;;;;37.60;35.30;;;;;;;17.40;100.00;102251.09;5030458;28;20444;-42
2023/09/30 09:04:38;;;;;;;41.90;38.97;;;;;;;17.44;100.00;102255.06;5029880;28;20894;-43
2023/09/30 09:07:08;;;;;;;39.27;36.83;;;;;;;17.76;100.00;102267.78;5025670;28;20855;-44
2023/09/30 09:09:35;;;;;;;39.60;36.83;;;;;;;17.98;100.00;102253.03;5017651;28;20463;-43
2023/09/30 09:12:04;;;;;;;37.43;35.33;;;;;;;18.26;100.00;102239.28;5018112;28;20472;-44
2023/09/30 09:14:39;;;;;;;35.20;32.10;;;;;;;18.55;100.00;102241.53;5026145;28;20497;-43
2023/09/30 09:17:08;;;;;;;34.33;32.23;;;;;;;18.79;100.00;102243.50;5022659;28;20481;-44
2023/09/30 09:19:36;;;;;;;35.53;32.83;;;;;;;19.03;100.00;102244.66;5029091;28;20463;-43
2023/09/30 09:22:06;;;;;;;34.37;31.70;;;;;;;19.07;100.00;102240.47;5022010;28;20436;-44
2023/09/30 09:24:38;;;;;;;31.67;29.90;;;;;;;19.27;100.00;102240.34;5014503;28;20493;-43
2023/09/30 09:27:08;;;;;;;32.10;30.03;;;;;;;19.54;100.00;102243.72;5015654;28;20461;-42
2023/09/30 09:29:36;;;;;;;32.10;30.30;;;;;;;19.74;100.00;102242.53;5020825;28;20552;-45
2023/09/30 09:32:11;;;;;;;26.77;25.07;;;;;;;19.81;100.00;102246.03;5019131;28;20440;-45
2023/09/30 09:34:39;;;;;;;26.40;24.90;;;;;;;19.92;100.00;102239.06;5012461;28;20852;-45
2023/09/30 09:37:15;;;;;;;24.20;22.60;;;;;;;19.87;100.00;102237.00;5014939;28;20889;-44
2023/09/30 09:39:52;;;;;;;25.03;22.90;;;;;;;19.76;100.00;102248.56;5017334;28;20511;-43
2023/09/30 09:42:28;;;;;;;22.77;21.30;;;;;;;19.87;100.00;102249.72;5016376;28;20439;-45
2023/09/30 09:44:57;;;;;;;21.93;20.50;;;;;;;20.13;100.00;102235.13;5015292;28;20826;-44
2023/09/30 09:47:25;;;;;;;21.33;19.83;;;;;;;20.36;100.00;102240.75;5014851;28;20459;-43
2023/09/30 09:49:54;;;;;;;19.33;17.87;;;;;;;20.34;100.00;102238.25;5015686;28;20463;-45
2023/09/30 09:52:23;;;;;;;19.67;18.27;;;;;;;20.20;100.00;102242.13;5016579;28;20456;-44
2023/09/30 09:54:52;;;;;;;20.37;19.00;;;;;;;20.24;100.00;102237.91;5014370;28;20919;-45
2023/09/30 09:57:20;;;;;;;20.67;19.07;;;;;;;20.23;100.00;102243.53;5016401;28;20502;-44
2023/09/30 09:59:49;;;;;;;21.07;19.47;;;;;;;20.26;100.00;102235.84;5011618;28;20834;-45
2023/09/30 10:02:17;;;;;;;18.60;17.30;;;;;;;20.24;100.00;102234.38;5022309;28;20523;-44
2023/09/30 10:04:46;;;;;;;18.07;16.70;;;;;;;20.01;100.00;102240.41;5015594;28;20593;-44
2023/09/30 10:07:21;;;;;;;19.73;15.23;;;;;;;19.77;100.00;102247.50;5010793;28;20480;-46
2023/09/30 10:09:53;;;;;;;17.07;15.37;;;;;;;19.81;100.00;102253.31;5016351;28;20540;-45
2023/09/30 10:12:21;;;;;;;16.03;14.73;;;;;;;19.71;100.00;102247.59;5018488;28;20428;-42
2023/09/30 10:14:49;;;;;;;16.53;15.10;;;;;;;19.37;100.00;102251.53;5019105;28;20471;-45
2023/09/30 10:17:16;;;;;;;15.77;14.43;;;;;;;19.34;100.00;102263.63;5020498;28;20562;-44
2023/09/30 10:20:07;;;;;;;15.33;13.90;;;;;;;19.25;100.00;102278.44;5016995;28;20888;-48
2023/09/30 10:22:35;;;;;;;15.03;13.40;;;;;;;18.64;100.00;102272.66;5018610;28;20971;-45
2023/09/30 10:25:34;;;;;;;19.00;15.20;;;;;;;18.58;100.00;102276.22;5015061;28;20456;-45
2023/09/30 10:28:36;;;;;;;16.77;15.00;;;;;;;18.35;100.00;102292.03;5013516;28;20501;-43
2023/09/30 10:31:13;;;;;;;16.57;14.83;;;;;;;18.44;100.00;102298.03;5014158;28;20466;-46
2023/09/30 10:34:14;;;;;;;17.77;16.00;;;;;;;18.67;100.00;102299.25;5010888;28;20519;-43
2023/09/30 10:36:43;;;;;;;15.23;13.83;;;;;;;18.89;100.00;102288.19;5009924;28;20565;-44
2023/09/30 10:39:13;;;;;;;15.47;14.03;;;;;;;19.13;100.00;102282.88;5013241;28;20444;-50
2023/09/30 10:41:51;;;;;;;15.63;14.13;;;;;;;19.13;100.00;102282.03;5020113;28;21050;-43
2023/09/30 10:44:33;;;;;;;13.90;12.50;;;;;;;19.30;100.00;102291.31;5023332;28;20429;-43
2023/09/30 10:47:22;;;;;;;15.90;13.47;;;;;;;19.42;100.00;102296.88;5011179;28;20449;-44
2023/09/30 10:49:49;;;;;;;15.17;12.63;;;;;;;19.67;100.00;102293.19;5007987;28;20460;-43
2023/09/30 10:52:23;;;;;;;14.13;12.90;;;;;;;19.88;100.00;102294.69;5013138;28;20436;-45
2023/09/30 10:54:50;;;;;;;13.00;11.63;;;;;;;20.06;100.00;102283.09;5009115;28;20543;-43
2023/09/30 10:57:29;;;;;;;12.17;11.27;;;;;;;20.20;100.00;102281.91;5011811;28;20558;-46
2023/09/30 11:00:11;;;;;;;12.33;11.30;;;;;;;20.27;100.00;102270.00;5012087;28;20873;-47
2023/09/30 11:02:51;;;;;;;13.07;11.80;;;;;;;20.19;100.00;102294.63;5014329;28;20431;-47
2023/09/30 11:05:20;;;;;;;12.20;11.03;;;;;;;20.09;100.00;102293.47;5015661;28;20466;-45
2023/09/30 11:08:04;;;;;;;13.00;10.90;;;;;;;19.71;100.00;102297.09;5017073;28;20526;-45